createdAt,value
2023-04-25T00:00:40.811Z,99.99
2023-04-25T00:01:40.810Z,99.99
2023-04-25T00:02:40.889Z,99.99
2023-04-25T00:03:40.933Z,99.99
2023-04-25T00:04:40.980Z,99.99
2023-04-25T00:05:40.832Z,99.99
2023-04-25T00:06:40.746Z,99.99
2023-04-25T00:07:40.743Z,99.99
2023-04-25T00:08:40.765Z,99.99
2023-04-25T00:09:40.711Z,99.99
2023-04-25T00:10:40.708Z,99.99
2023-04-25T00:11:40.692Z,99.99
2023-04-25T00:12:40.689Z,99.99
2023-04-25T00:13:40.671Z,99.99
2023-04-25T00:14:40.670Z,99.99
2023-04-25T00:15:40.695Z,99.99
2023-04-25T00:16:40.645Z,99.99
2023-04-25T00:17:40.674Z,99.99
2023-04-25T00:18:40.611Z,99.99
2023-04-25T00:19:40.617Z,99.99
2023-04-25T00:20:40.595Z,99.99
2023-04-25T00:21:40.585Z,99.99
2023-04-25T00:22:40.584Z,99.99
2023-04-25T00:23:40.569Z,99.99
2023-04-25T00:24:40.572Z,99.99
2023-04-25T00:25:40.541Z,99.99
2023-04-25T00:26:40.555Z,99.99
2023-04-25T00:27:40.522Z,99.99
2023-04-25T00:28:40.504Z,99.99
2023-04-25T00:29:40.500Z,99.99
2023-04-25T00:30:40.487Z,99.99
2023-04-25T00:31:40.539Z,99.99
2023-04-25T00:32:40.566Z,99.99
2023-04-25T00:33:40.462Z,99.99
2023-04-25T00:34:40.451Z,99.99
2023-04-25T00:35:40.434Z,99.99
2023-04-25T00:36:40.430Z,99.99
2023-04-25T00:37:40.411Z,99.99
2023-04-25T00:38:40.426Z,99.99
2023-04-25T00:39:40.388Z,99.99
2023-04-25T00:40:40.400Z,99.99
2023-04-25T00:41:40.396Z,99.99
2023-04-25T00:42:40.362Z,99.99
2023-04-25T00:43:40.344Z,99.99
2023-04-25T00:44:40.341Z,99.99
2023-04-25T00:45:40.325Z,99.99
2023-04-25T00:46:40.362Z,99.99
2023-04-25T00:47:40.374Z,99.99
2023-04-25T00:48:40.299Z,99.99
2023-04-25T00:49:40.290Z,99.99
2023-04-25T00:50:40.278Z,99.99
2023-04-25T00:51:40.269Z,99.99
2023-04-25T00:52:40.259Z,99.99
2023-04-25T00:53:40.256Z,99.99
2023-04-25T00:54:40.247Z,99.99
2023-04-25T00:55:40.223Z,99.99
2023-04-25T00:56:40.243Z,99.99
2023-04-25T00:57:40.264Z,99.99
2023-04-25T00:58:40.189Z,99.99
2023-04-25T00:59:40.190Z,99.99
2023-04-25T01:00:40.179Z,99.99
2023-04-25T01:01:40.151Z,99.99
2023-04-25T01:02:40.378Z,99.99
2023-04-25T01:03:40.412Z,99.99
2023-04-25T01:04:40.134Z,99.99
2023-04-25T01:05:40.141Z,99.99
2023-04-25T01:06:40.103Z,99.99
2023-04-25T01:07:40.088Z,99.99
2023-04-25T01:08:40.093Z,99.99
2023-04-25T01:09:40.081Z,99.99
2023-04-25T01:10:40.065Z,99.99
2023-04-25T01:11:40.060Z,99.99
2023-04-25T01:12:40.068Z,99.99
2023-04-25T01:13:40.025Z,99.99
2023-04-25T01:14:40.068Z,99.99
2023-04-25T01:15:40.017Z,99.99
2023-04-25T01:16:40.104Z,99.99
2023-04-25T01:17:40.025Z,99.99
2023-04-25T01:18:39.983Z,99.99
2023-04-25T01:19:39.965Z,99.99
2023-04-25T01:20:39.980Z,99.99
2023-04-25T01:21:39.943Z,99.65
2023-04-25T01:22:39.940Z,99.65
2023-04-25T01:23:39.934Z,99.99
2023-04-25T01:24:39.913Z,99.99
2023-04-25T01:25:39.898Z,99.99
2023-04-25T01:26:39.888Z,99.99
2023-04-25T01:27:39.879Z,99.99
2023-04-25T01:28:39.890Z,99.99
2023-04-25T01:29:39.860Z,99.99
2023-04-25T01:30:39.841Z,99.99
2023-04-25T01:31:39.872Z,99.99
2023-04-25T01:32:39.872Z,99.99
2023-04-25T01:33:39.821Z,99.99
2023-04-25T01:34:39.810Z,99.99
2023-04-25T01:35:39.795Z,99.99
2023-04-25T01:36:39.784Z,99.99
2023-04-25T01:37:39.784Z,99.90
2023-04-25T01:38:39.767Z,99.48
2023-04-25T01:39:39.758Z,99.90
2023-04-25T01:40:39.738Z,99.80
2023-04-25T01:41:39.745Z,99.99
2023-04-25T01:42:39.717Z,99.99
2023-04-25T01:43:39.709Z,99.99
2023-04-25T01:44:39.717Z,99.99
2023-04-25T01:45:39.717Z,99.99
2023-04-25T01:46:39.744Z,99.99
2023-04-25T01:47:39.721Z,99.99
2023-04-25T01:48:39.667Z,99.99
2023-04-25T01:49:39.641Z,99.99
2023-04-25T01:50:39.635Z,99.99
2023-04-25T01:51:39.621Z,99.99
2023-04-25T01:52:39.620Z,99.99
2023-04-25T01:53:39.610Z,99.99
2023-04-25T01:54:39.594Z,99.99
2023-04-25T01:55:39.575Z,99.99
2023-04-25T01:56:39.573Z,99.99
2023-04-25T01:57:39.560Z,99.99
2023-04-25T01:58:39.542Z,99.99
2023-04-25T01:59:39.554Z,99.99
2023-04-25T02:00:39.551Z,99.99
2023-04-25T02:01:39.544Z,99.99
2023-04-25T02:02:39.752Z,99.99
2023-04-25T02:03:39.831Z,99.99
2023-04-25T02:04:39.667Z,99.99
2023-04-25T02:05:39.476Z,99.99
2023-04-25T02:06:39.471Z,99.99
2023-04-25T02:07:39.452Z,99.99
2023-04-25T02:08:39.444Z,99.99
2023-04-25T02:09:39.438Z,99.99
2023-04-25T02:10:39.417Z,99.99
2023-04-25T02:11:39.404Z,99.99
2023-04-25T02:12:39.397Z,99.99
2023-04-25T02:13:39.386Z,99.99
2023-04-25T02:14:39.392Z,99.99
2023-04-25T02:15:39.374Z,99.99
2023-04-25T02:16:39.452Z,99.99
2023-04-25T02:17:39.363Z,99.99
2023-04-25T02:18:39.338Z,99.99
2023-04-25T02:19:39.320Z,99.99
2023-04-25T02:20:39.326Z,99.99
2023-04-25T02:21:39.298Z,99.99
2023-04-25T02:22:39.291Z,99.99
2023-04-25T02:23:39.285Z,99.99
2023-04-25T02:24:39.268Z,99.99
2023-04-25T02:25:39.264Z,99.99
2023-04-25T02:26:39.316Z,99.99
2023-04-25T02:27:39.236Z,99.99
2023-04-25T02:28:39.234Z,99.99
2023-04-25T02:29:39.229Z,99.99
2023-04-25T02:30:39.211Z,99.99
2023-04-25T02:31:39.216Z,99.99
2023-04-25T02:32:39.271Z,99.99
2023-04-25T02:33:39.173Z,99.69
2023-04-25T02:34:39.163Z,99.99
2023-04-25T02:35:39.162Z,99.59
2023-04-25T02:36:39.153Z,99.80
2023-04-25T02:37:39.135Z,99.99
2023-04-25T02:38:39.119Z,99.99
2023-04-25T02:39:39.120Z,99.99
2023-04-25T02:40:39.100Z,99.99
2023-04-25T02:41:39.088Z,99.99
2023-04-25T02:42:39.069Z,99.99
2023-04-25T02:43:39.070Z,99.99
2023-04-25T02:44:39.068Z,99.99
2023-04-25T02:45:39.054Z,99.99
2023-04-25T02:46:39.933Z,99.99
2023-04-25T02:47:39.037Z,99.99
2023-04-25T02:48:39.037Z,99.99
2023-04-25T02:49:38.993Z,99.99
2023-04-25T02:50:39.005Z,99.99
2023-04-25T02:51:38.975Z,99.99
2023-04-25T02:52:38.959Z,99.99
2023-04-25T02:53:38.954Z,99.99
2023-04-25T02:54:38.944Z,99.99
2023-04-25T02:55:38.950Z,99.80
2023-04-25T02:56:38.952Z,99.69
2023-04-25T02:57:38.908Z,99.99
2023-04-25T02:58:38.898Z,99.99
2023-04-25T02:59:38.907Z,99.99
2023-04-25T03:00:38.914Z,99.99
2023-04-25T03:01:38.869Z,99.99
2023-04-25T03:02:38.983Z,99.99
2023-04-25T03:03:38.893Z,99.99
2023-04-25T03:04:38.915Z,99.99
2023-04-25T03:05:38.857Z,99.99
2023-04-25T03:06:38.810Z,99.99
2023-04-25T03:07:38.809Z,99.99
2023-04-25T03:08:38.795Z,99.99
2023-04-25T03:09:38.826Z,99.99
2023-04-25T03:10:38.777Z,99.99
2023-04-25T03:11:38.761Z,99.99
2023-04-25T03:12:38.755Z,99.99
2023-04-25T03:13:38.750Z,99.99
2023-04-25T03:14:38.727Z,99.99
2023-04-25T03:15:38.726Z,99.99
2023-04-25T03:16:38.730Z,99.99
2023-04-25T03:17:38.815Z,99.99
2023-04-25T03:18:38.692Z,99.99
2023-04-25T03:19:38.675Z,99.99
2023-04-25T03:20:38.705Z,99.99
2023-04-25T03:21:38.662Z,99.99
2023-04-25T03:22:38.657Z,99.99
2023-04-25T03:23:38.628Z,99.99
2023-04-25T03:24:38.620Z,99.99
2023-04-25T03:25:38.613Z,99.99
2023-04-25T03:26:38.608Z,99.99
2023-04-25T03:27:38.609Z,99.99
2023-04-25T03:28:38.589Z,99.99
2023-04-25T03:29:38.571Z,99.99
2023-04-25T03:30:38.571Z,99.99
2023-04-25T03:31:38.624Z,99.99
2023-04-25T03:32:38.631Z,99.99
2023-04-25T03:33:38.555Z,99.99
2023-04-25T03:34:38.537Z,99.99
2023-04-25T03:35:38.522Z,99.99
2023-04-25T03:36:41.036Z,99.99
2023-04-25T03:37:38.519Z,99.99
2023-04-25T03:38:38.483Z,99.99
2023-04-25T03:39:38.472Z,99.99
2023-04-25T03:40:38.453Z,99.99
2023-04-25T03:41:38.455Z,99.99
2023-04-25T03:42:38.427Z,98.63
2023-04-25T03:43:38.422Z,99.68
2023-04-25T03:44:38.406Z,99.99
2023-04-25T03:45:38.446Z,99.99
2023-04-25T03:46:38.391Z,99.99
2023-04-25T03:47:38.410Z,99.99
2023-04-25T03:48:38.396Z,99.99
2023-04-25T03:49:38.383Z,99.99
2023-04-25T03:50:38.350Z,99.99
2023-04-25T03:51:38.341Z,99.99
2023-04-25T03:52:38.345Z,99.99
2023-04-25T03:53:38.328Z,99.99
2023-04-25T03:54:38.310Z,99.99
2023-04-25T03:55:38.349Z,99.99
2023-04-25T03:56:38.303Z,99.99
2023-04-25T03:57:38.273Z,99.99
2023-04-25T03:58:38.274Z,99.99
2023-04-25T03:59:38.261Z,99.99
2023-04-25T04:00:38.241Z,99.99
2023-04-25T04:01:38.245Z,99.99
2023-04-25T04:02:38.599Z,99.99
2023-04-25T04:03:38.585Z,99.99
2023-04-25T04:04:38.519Z,99.99
2023-04-25T04:05:38.309Z,99.99
2023-04-25T04:06:38.229Z,99.99
2023-04-25T04:07:38.163Z,99.99
2023-04-25T04:08:38.192Z,99.77
2023-04-25T04:09:38.141Z,98.93
2023-04-25T04:10:38.160Z,99.83
2023-04-25T04:11:38.127Z,99.52
2023-04-25T04:12:38.115Z,99.99
2023-04-25T04:13:38.108Z,99.99
2023-04-25T04:14:38.089Z,99.99
2023-04-25T04:15:38.096Z,99.99
2023-04-25T04:16:38.257Z,99.99
2023-04-25T04:17:38.135Z,99.99
2023-04-25T04:18:38.051Z,99.99
2023-04-25T04:19:38.041Z,99.99
2023-04-25T04:20:38.023Z,99.99
2023-04-25T04:21:38.024Z,99.99
2023-04-25T04:22:38.012Z,99.99
2023-04-25T04:23:39.533Z,99.99
2023-04-25T04:24:38.003Z,99.99
2023-04-25T04:25:37.968Z,99.99
2023-04-25T04:26:37.968Z,99.99
2023-04-25T04:27:37.953Z,99.99
2023-04-25T04:28:37.943Z,99.99
2023-04-25T04:29:37.988Z,99.99
2023-04-25T04:30:37.921Z,99.99
2023-04-25T04:31:37.945Z,99.99
2023-04-25T04:32:37.929Z,99.99
2023-04-25T04:33:37.894Z,99.99
2023-04-25T04:34:37.888Z,99.99
2023-04-25T04:35:37.878Z,99.99
2023-04-25T04:36:37.872Z,99.99
2023-04-25T04:37:37.882Z,99.99
2023-04-25T04:38:39.153Z,99.99
2023-04-25T04:39:37.841Z,99.99
2023-04-25T04:40:37.839Z,99.99
2023-04-25T04:41:37.799Z,99.99
2023-04-25T04:42:37.796Z,99.99
2023-04-25T04:43:37.793Z,99.99
2023-04-25T04:44:37.782Z,99.99
2023-04-25T04:45:37.773Z,99.99
2023-04-25T04:46:37.786Z,99.99
2023-04-25T04:47:37.878Z,99.99
2023-04-25T04:48:37.737Z,99.99
2023-04-25T04:49:37.727Z,99.99
2023-04-25T04:50:37.713Z,99.99
2023-04-25T04:51:37.730Z,99.99
2023-04-25T04:52:37.713Z,99.99
2023-04-25T04:53:37.677Z,99.99
2023-04-25T04:54:37.679Z,99.99
2023-04-25T04:55:37.654Z,99.99
2023-04-25T04:56:37.670Z,99.99
2023-04-25T04:57:37.633Z,99.99
2023-04-25T04:58:37.664Z,99.99
2023-04-25T04:59:37.632Z,99.99
2023-04-25T05:00:37.682Z,99.99
2023-04-25T05:01:37.629Z,99.99
2023-04-25T05:02:37.749Z,99.99
2023-04-25T05:03:37.794Z,99.99
2023-04-25T05:04:37.782Z,99.99
2023-04-25T05:05:37.555Z,99.99
2023-04-25T05:06:37.544Z,99.99
2023-04-25T05:07:37.537Z,99.99
2023-04-25T05:08:37.553Z,99.99
2023-04-25T05:09:37.541Z,99.99
2023-04-25T05:10:37.500Z,99.31
2023-04-25T05:11:37.493Z,99.26
2023-04-25T05:12:37.502Z,99.43
2023-04-25T05:13:37.468Z,98.56
2023-04-25T05:14:37.472Z,97.47
2023-04-25T05:15:37.447Z,95.51
2023-04-25T05:16:37.494Z,92.76
2023-04-25T05:17:37.448Z,90.64
2023-04-25T05:18:37.412Z,90.91
2023-04-25T05:19:37.398Z,89.94
2023-04-25T05:20:37.406Z,89.44
2023-04-25T05:21:37.380Z,88.23
2023-04-25T05:22:37.395Z,88.02
2023-04-25T05:23:37.364Z,86.85
2023-04-25T05:24:37.353Z,88.21
2023-04-25T05:25:37.341Z,86.55
2023-04-25T05:26:37.336Z,85.04
2023-04-25T05:27:37.318Z,85.50
2023-04-25T05:28:37.340Z,86.12
2023-04-25T05:29:37.298Z,87.05
2023-04-25T05:30:37.286Z,85.91
2023-04-25T05:31:37.338Z,85.87
2023-04-25T05:32:37.326Z,84.59
2023-04-25T05:33:37.270Z,85.27
2023-04-25T05:34:37.238Z,85.75
2023-04-25T05:35:37.234Z,84.41
2023-04-25T05:36:37.216Z,84.17
2023-04-25T05:37:37.224Z,85.11
2023-04-25T05:38:37.223Z,85.35
2023-04-25T05:39:37.192Z,85.31
2023-04-25T05:40:37.173Z,84.83
2023-04-25T05:41:37.165Z,85.35
2023-04-25T05:42:37.148Z,85.73
2023-04-25T05:43:37.142Z,85.73
2023-04-25T05:44:37.199Z,85.87
2023-04-25T05:45:37.153Z,85.31
2023-04-25T05:46:37.187Z,85.06
2023-04-25T05:47:37.142Z,84.48
2023-04-25T05:48:37.083Z,85.79
2023-04-25T05:49:37.080Z,85.92
2023-04-25T05:50:37.084Z,85.40
2023-04-25T05:51:37.051Z,83.56
2023-04-25T05:52:37.044Z,82.36
2023-04-25T05:53:37.037Z,81.91
2023-04-25T05:54:37.021Z,82.05
2023-04-25T05:55:37.044Z,82.78
2023-04-25T05:56:37.017Z,81.26
2023-04-25T05:57:36.990Z,81.51
2023-04-25T05:58:36.975Z,81.65
2023-04-25T05:59:36.985Z,82.65
2023-04-25T06:00:37.079Z,82.71
2023-04-25T06:01:36.941Z,80.85
2023-04-25T06:02:37.078Z,79.77
2023-04-25T06:03:37.162Z,80.67
2023-04-25T06:04:37.202Z,80.90
2023-04-25T06:05:37.080Z,79.25
2023-04-25T06:06:36.884Z,78.01
2023-04-25T06:07:36.882Z,81.32
2023-04-25T06:08:36.870Z,80.80
2023-04-25T06:09:36.857Z,80.53
2023-04-25T06:10:36.841Z,81.35
2023-04-25T06:11:36.842Z,81.49
2023-04-25T06:12:36.827Z,82.18
2023-04-25T06:13:36.815Z,80.57
2023-04-25T06:14:36.807Z,80.57
2023-04-25T06:15:36.831Z,79.74
2023-04-25T06:16:36.890Z,80.88
2023-04-25T06:17:36.783Z,82.08
2023-04-25T06:18:36.765Z,81.32
2023-04-25T06:19:36.749Z,77.81
2023-04-25T06:20:36.742Z,77.77
2023-04-25T06:21:36.735Z,78.32
2023-04-25T06:22:36.715Z,80.46
2023-04-25T06:23:36.702Z,81.47
2023-04-25T06:24:36.692Z,83.20
2023-04-25T06:25:36.687Z,84.59
2023-04-25T06:26:36.724Z,85.19
2023-04-25T06:27:36.678Z,87.19
2023-04-25T06:28:36.650Z,86.99
2023-04-25T06:29:36.639Z,87.13
2023-04-25T06:30:36.625Z,89.42
2023-04-25T06:31:36.668Z,89.46
2023-04-25T06:32:36.724Z,90.19
2023-04-25T06:33:36.598Z,90.39
2023-04-25T06:34:36.597Z,89.83
2023-04-25T06:35:36.587Z,89.00
2023-04-25T06:36:36.571Z,89.37
2023-04-25T06:37:36.577Z,89.34
2023-04-25T06:38:36.561Z,87.63
2023-04-25T06:39:37.218Z,88.98
2023-04-25T06:40:36.531Z,88.46
2023-04-25T06:41:36.508Z,86.93
2023-04-25T06:42:36.501Z,88.05
2023-04-25T06:43:36.492Z,84.55
2023-04-25T06:44:36.487Z,84.51
2023-04-25T06:45:36.484Z,82.98
2023-04-25T06:46:36.495Z,83.46
2023-04-25T06:47:36.486Z,83.32
2023-04-25T06:48:36.465Z,81.49
2023-04-25T06:49:36.428Z,82.87
2023-04-25T06:50:36.416Z,82.76
2023-04-25T06:51:36.401Z,82.66
2023-04-25T06:52:36.400Z,81.01
2023-04-25T06:53:36.407Z,80.60
2023-04-25T06:54:36.370Z,81.67
2023-04-25T06:55:36.369Z,82.15
2023-04-25T06:56:36.360Z,82.93
2023-04-25T06:57:36.351Z,83.89
2023-04-25T06:58:36.345Z,81.76
2023-04-25T06:59:36.318Z,80.39
2023-04-25T07:00:36.350Z,83.39
2023-04-25T07:01:36.316Z,82.56
2023-04-25T07:02:36.397Z,85.24
2023-04-25T07:03:36.559Z,83.07
2023-04-25T07:04:36.503Z,86.20
2023-04-25T07:05:36.249Z,82.73
2023-04-25T07:06:36.261Z,83.31
2023-04-25T07:07:36.234Z,84.81
2023-04-25T07:08:36.231Z,80.48
2023-04-25T07:09:36.210Z,81.52
2023-04-25T07:10:36.209Z,83.12
2023-04-25T07:11:36.205Z,85.34
2023-04-25T07:12:36.181Z,87.72
2023-04-25T07:13:36.181Z,88.92
2023-04-25T07:14:36.158Z,83.75
2023-04-25T07:15:36.166Z,83.54
2023-04-25T07:16:36.197Z,83.63
2023-04-25T07:17:36.182Z,83.93
2023-04-25T07:18:36.109Z,82.52
2023-04-25T07:19:36.109Z,82.56
2023-04-25T07:20:36.130Z,83.90
2023-04-25T07:21:36.083Z,82.59
2023-04-25T07:22:36.082Z,77.84
2023-04-25T07:23:36.039Z,81.17
2023-04-25T07:24:36.048Z,77.97
2023-04-25T07:25:36.018Z,79.31
2023-04-25T07:26:36.032Z,80.62
2023-04-25T07:27:35.997Z,78.55
2023-04-25T07:28:35.996Z,78.14
2023-04-25T07:29:35.973Z,78.08
2023-04-25T07:30:35.982Z,76.32
2023-04-25T07:31:35.996Z,81.34
2023-04-25T07:32:36.056Z,77.83
2023-04-25T07:33:35.942Z,78.07
2023-04-25T07:34:35.925Z,76.29
2023-04-25T07:35:35.930Z,79.90
2023-04-25T07:36:35.928Z,79.08
2023-04-25T07:37:35.892Z,82.08
2023-04-25T07:38:35.906Z,82.60
2023-04-25T07:39:35.865Z,84.36
2023-04-25T07:40:35.857Z,83.53
2023-04-25T07:41:35.880Z,83.15
2023-04-25T07:42:35.887Z,83.05
2023-04-25T07:43:35.822Z,84.39
2023-04-25T07:44:35.838Z,83.71
2023-04-25T07:45:35.897Z,82.98
2023-04-25T07:46:35.848Z,82.88
2023-04-25T07:47:35.893Z,83.29
2023-04-25T07:48:35.804Z,84.95
2023-04-25T07:49:35.800Z,84.88
2023-04-25T07:50:35.777Z,84.99
2023-04-25T07:51:35.779Z,84.64
2023-04-25T07:52:35.788Z,85.47
2023-04-25T07:53:35.757Z,85.84
2023-04-25T07:54:35.732Z,84.43
2023-04-25T07:55:35.717Z,83.19
2023-04-25T07:56:49.079Z,84.12
2023-04-25T07:57:36.697Z,83.87
2023-04-25T07:58:35.683Z,83.94
2023-04-25T07:59:35.680Z,82.98
2023-04-25T08:00:35.671Z,83.61
2023-04-25T08:01:35.661Z,84.39
2023-04-25T08:02:35.758Z,83.05
2023-04-25T08:03:35.813Z,83.46
2023-04-25T08:04:35.808Z,82.42
2023-04-25T08:05:35.753Z,83.27
2023-04-25T08:06:35.912Z,78.86
2023-04-25T08:07:35.588Z,78.62
2023-04-25T08:08:35.636Z,80.23
2023-04-25T08:09:35.571Z,78.31
2023-04-25T08:10:35.572Z,77.42
2023-04-25T08:11:35.542Z,81.16
2023-04-25T08:12:35.533Z,77.97
2023-04-25T08:13:35.522Z,77.94
2023-04-25T08:14:35.529Z,80.51
2023-04-25T08:15:35.528Z,80.51
2023-04-25T08:16:35.487Z,77.83
2023-04-25T08:17:35.493Z,79.04
2023-04-25T08:18:35.471Z,78.70
2023-04-25T08:19:35.476Z,80.15
2023-04-25T08:20:35.447Z,80.35
2023-04-25T08:21:35.447Z,79.87
2023-04-25T08:22:35.436Z,83.18
2023-04-25T08:23:35.439Z,84.28
2023-04-25T08:24:37.134Z,85.04
2023-04-25T08:25:35.393Z,84.83
2023-04-25T08:26:35.402Z,84.11
2023-04-25T08:27:35.372Z,85.35
2023-04-25T08:28:35.376Z,85.24
2023-04-25T08:29:35.360Z,85.24
2023-04-25T08:30:35.357Z,85.27
2023-04-25T08:31:35.413Z,84.16
2023-04-25T08:32:35.467Z,83.75
2023-04-25T08:33:35.361Z,84.27
2023-04-25T08:34:35.319Z,83.95
2023-04-25T08:35:35.319Z,82.14
2023-04-25T08:36:39.866Z,83.27
2023-04-25T08:37:36.271Z,83.03
2023-04-25T08:38:35.268Z,82.45
2023-04-25T08:39:35.277Z,83.31
2023-04-25T08:40:35.258Z,83.93
2023-04-25T08:41:35.229Z,83.78
2023-04-25T08:42:35.209Z,84.92
2023-04-25T08:43:35.238Z,82.34
2023-04-25T08:44:35.206Z,83.78
2023-04-25T08:45:35.189Z,83.89
2023-04-25T08:46:35.217Z,83.23
2023-04-25T08:47:35.175Z,82.86
2023-04-25T08:48:35.148Z,81.99
2023-04-25T08:49:35.144Z,80.41
2023-04-25T08:50:35.135Z,81.51
2023-04-25T08:51:35.118Z,80.30
2023-04-25T08:52:35.096Z,80.14
2023-04-25T08:53:36.262Z,78.90
2023-04-25T08:54:36.530Z,79.62
2023-04-25T08:55:35.066Z,79.07
2023-04-25T08:56:35.091Z,80.13
2023-04-25T08:57:35.047Z,77.93
2023-04-25T08:58:35.032Z,77.59
2023-04-25T08:59:36.562Z,78.04
2023-04-25T09:00:35.014Z,77.56
2023-04-25T09:01:35.097Z,79.21
2023-04-25T09:02:35.111Z,78.83
2023-04-25T09:03:35.068Z,80.69
2023-04-25T09:04:34.970Z,80.07
2023-04-25T09:05:34.960Z,80.20
2023-04-25T09:06:35.001Z,80.27
2023-04-25T09:07:34.931Z,78.58
2023-04-25T09:08:34.937Z,78.79
2023-04-25T09:09:34.919Z,78.52
2023-04-25T09:10:34.908Z,79.93
2023-04-25T09:11:34.892Z,79.93
2023-04-25T09:12:34.996Z,78.34
2023-04-25T09:13:34.879Z,81.03
2023-04-25T09:14:34.872Z,80.44
2023-04-25T09:15:34.845Z,79.52
2023-04-25T09:16:37.087Z,79.62
2023-04-25T09:17:34.908Z,78.94
2023-04-25T09:18:34.826Z,79.14
2023-04-25T09:19:39.709Z,78.14
2023-04-25T09:20:40.344Z,78.70
2023-04-25T09:21:35.787Z,79.56
2023-04-25T09:22:34.768Z,80.18
2023-04-25T09:23:34.759Z,81.63
2023-04-25T09:24:34.763Z,82.45
2023-04-25T09:25:34.750Z,83.46
2023-04-25T09:26:34.734Z,83.98
2023-04-25T09:27:34.711Z,83.67
2023-04-25T09:28:34.934Z,84.68
2023-04-25T09:29:34.700Z,86.91
2023-04-25T09:30:34.693Z,87.16
2023-04-25T09:31:34.706Z,88.61
2023-04-25T09:32:34.869Z,89.34
2023-04-25T09:33:34.652Z,88.55
2023-04-25T09:34:34.649Z,90.31
2023-04-25T09:35:34.632Z,90.72
2023-04-25T09:36:34.786Z,89.31
2023-04-25T09:37:34.615Z,91.91
2023-04-25T09:38:34.606Z,92.22
2023-04-25T09:39:34.590Z,91.43
2023-04-25T09:40:34.586Z,92.88
2023-04-25T09:41:34.561Z,91.53
2023-04-25T09:42:34.553Z,92.36
2023-04-25T09:43:34.575Z,93.65
2023-04-25T09:44:34.585Z,91.83
2023-04-25T09:45:34.537Z,91.62
2023-04-25T09:46:34.631Z,91.93
2023-04-25T09:47:34.515Z,93.18
2023-04-25T09:48:34.492Z,93.38
2023-04-25T09:49:34.482Z,94.94
2023-04-25T09:50:34.473Z,95.46
2023-04-25T09:51:34.474Z,96.39
2023-04-25T09:52:34.445Z,97.95
2023-04-25T09:53:34.442Z,98.94
2023-04-25T09:54:34.432Z,97.90
2023-04-25T09:55:34.429Z,98.79
2023-04-25T09:56:34.451Z,99.37
2023-04-25T09:57:34.402Z,97.81
2023-04-25T09:58:34.402Z,97.59
2023-04-25T09:59:34.396Z,99.21
2023-04-25T10:00:34.400Z,97.90
2023-04-25T10:01:34.412Z,97.64
2023-04-25T10:02:34.382Z,98.52
2023-04-25T10:03:34.534Z,98.48
2023-04-25T10:04:34.386Z,99.99
2023-04-25T10:05:34.315Z,99.99
2023-04-25T10:06:34.302Z,98.17
2023-04-25T10:07:34.315Z,98.48
2023-04-25T10:08:34.279Z,99.72
2023-04-25T10:09:34.258Z,99.93
2023-04-25T10:10:34.253Z,99.99
2023-04-25T10:11:34.240Z,99.99
2023-04-25T10:12:34.313Z,99.99
2023-04-25T10:13:34.242Z,99.99
2023-04-25T10:14:34.212Z,99.99
2023-04-25T10:15:34.246Z,99.99
2023-04-25T10:16:34.295Z,99.92
2023-04-25T10:17:34.239Z,99.99
2023-04-25T10:18:34.182Z,99.99
2023-04-25T10:19:34.155Z,99.99
2023-04-25T10:20:34.153Z,99.99
2023-04-25T10:21:34.148Z,99.99
2023-04-25T10:22:34.131Z,99.99
2023-04-25T10:23:34.121Z,99.38
2023-04-25T10:24:34.113Z,99.99
2023-04-25T10:25:34.094Z,99.99
2023-04-25T10:26:34.090Z,99.99
2023-04-25T10:27:34.090Z,99.99
2023-04-25T10:28:34.070Z,99.99
2023-04-25T10:29:34.079Z,99.99
2023-04-25T10:30:34.051Z,99.99
2023-04-25T10:31:34.110Z,99.99
2023-04-25T10:32:34.048Z,99.99
2023-04-25T10:33:34.028Z,99.98
2023-04-25T10:34:33.997Z,99.98
2023-04-25T10:35:33.976Z,98.57
2023-04-25T10:36:33.995Z,99.99
2023-04-25T10:37:33.961Z,99.99
2023-04-25T10:38:33.967Z,99.40
2023-04-25T10:39:33.963Z,99.30
2023-04-25T10:40:33.960Z,99.99
2023-04-25T10:41:33.918Z,99.40
2023-04-25T10:42:33.911Z,99.19
2023-04-25T10:43:33.908Z,98.93
2023-04-25T10:44:33.901Z,98.82
2023-04-25T10:45:33.895Z,99.18
2023-04-25T10:46:33.896Z,98.35
2023-04-25T10:47:33.915Z,99.12
2023-04-25T10:48:33.864Z,99.02
2023-04-25T10:49:33.848Z,98.19
2023-04-25T10:50:33.825Z,97.88
2023-04-25T10:51:50.894Z,98.60
2023-04-25T10:52:34.811Z,98.91
2023-04-25T10:53:33.790Z,98.76
2023-04-25T10:54:33.781Z,99.49
2023-04-25T10:55:33.773Z,99.99
2023-04-25T10:56:33.759Z,99.55
2023-04-25T10:57:33.752Z,99.19
2023-04-25T10:58:33.737Z,97.74
2023-04-25T10:59:33.733Z,97.85
2023-04-25T11:00:38.500Z,97.24
2023-04-25T11:01:34.715Z,97.71
2023-04-25T11:02:33.804Z,93.46
2023-04-25T11:03:33.864Z,97.04
2023-04-25T11:04:33.879Z,94.97
2023-04-25T11:05:36.260Z,94.10
2023-04-25T11:06:34.662Z,96.12
2023-04-25T11:07:33.656Z,94.89
2023-04-25T11:08:33.630Z,93.29
2023-04-25T11:09:33.621Z,93.66
2023-04-25T11:10:33.604Z,89.77
2023-04-25T11:11:33.613Z,91.74
2023-04-25T11:12:33.581Z,92.05
2023-04-25T11:13:33.572Z,91.63
2023-04-25T11:14:33.562Z,92.57
2023-04-25T11:15:33.580Z,92.89
2023-04-25T11:16:33.572Z,87.58
2023-04-25T11:17:33.652Z,87.56
2023-04-25T11:18:33.513Z,88.96
2023-04-25T11:19:33.531Z,90.10
2023-04-25T11:20:33.531Z,91.86
2023-04-25T11:21:33.501Z,92.32
2023-04-25T11:22:33.484Z,90.97
2023-04-25T11:23:33.467Z,89.42
2023-04-25T11:24:33.458Z,90.10
2023-04-25T11:25:34.431Z,90.00
2023-04-25T11:26:33.462Z,88.59
2023-04-25T11:27:33.438Z,88.70
2023-04-25T11:28:33.420Z,89.32
2023-04-25T11:29:33.405Z,88.84
2023-04-25T11:30:33.388Z,87.56
2023-04-25T11:31:33.398Z,89.46
2023-04-25T11:32:33.597Z,89.52
2023-04-25T11:33:33.458Z,86.63
2023-04-25T11:34:33.357Z,87.49
2023-04-25T11:35:33.336Z,86.98
2023-04-25T11:36:33.528Z,87.66
2023-04-25T11:37:33.310Z,84.91
2023-04-25T11:38:33.299Z,86.60
2023-04-25T11:39:33.319Z,87.08
2023-04-25T11:40:33.280Z,88.06
2023-04-25T11:41:33.272Z,88.12
2023-04-25T11:42:33.268Z,87.85
2023-04-25T11:43:33.322Z,87.91
2023-04-25T11:44:33.242Z,88.94
2023-04-25T11:45:33.337Z,87.64
2023-04-25T11:46:33.357Z,87.39
2023-04-25T11:47:33.340Z,87.81
2023-04-25T11:48:33.197Z,88.74
2023-04-25T11:49:33.194Z,88.84
2023-04-25T11:50:33.179Z,89.25
2023-04-25T11:51:33.180Z,88.32
2023-04-25T11:52:33.179Z,89.04
2023-04-25T11:53:33.140Z,88.88
2023-04-25T11:54:33.133Z,88.88
2023-04-25T11:55:33.137Z,89.29
2023-04-25T11:56:33.105Z,88.74
2023-04-25T11:57:33.112Z,89.36
2023-04-25T11:58:33.087Z,89.22
2023-04-25T11:59:33.082Z,88.64
2023-04-25T12:00:33.067Z,88.32
2023-04-25T12:01:35.012Z,88.70
2023-04-25T12:02:33.196Z,89.04
2023-04-25T12:03:33.250Z,88.70
2023-04-25T12:04:33.338Z,89.36
2023-04-25T12:05:34.121Z,90.00
2023-04-25T12:06:33.017Z,88.49
2023-04-25T12:07:33.003Z,88.28
2023-04-25T12:08:33.022Z,88.18
2023-04-25T12:09:32.976Z,88.76
2023-04-25T12:10:32.984Z,87.31
2023-04-25T12:11:32.965Z,89.03
2023-04-25T12:12:32.944Z,87.17
2023-04-25T12:13:32.931Z,84.31
2023-04-25T12:14:32.926Z,84.11
2023-04-25T12:15:32.914Z,84.11
2023-04-25T12:16:32.920Z,85.39
2023-04-25T12:17:32.923Z,85.18
2023-04-25T12:18:32.874Z,85.14
2023-04-25T12:19:32.858Z,83.94
2023-04-25T12:20:32.848Z,86.36
2023-04-25T12:21:33.394Z,85.39
2023-04-25T12:22:32.850Z,86.88
2023-04-25T12:23:32.819Z,85.60
2023-04-25T12:24:32.877Z,88.07
2023-04-25T12:25:32.797Z,86.88
2023-04-25T12:26:32.806Z,86.98
2023-04-25T12:27:32.788Z,88.39
2023-04-25T12:28:32.772Z,86.63
2023-04-25T12:29:41.791Z,86.11
2023-04-25T12:30:33.737Z,84.60
2023-04-25T12:31:32.770Z,85.16
2023-04-25T12:32:32.750Z,85.16
2023-04-25T12:33:32.735Z,86.05
2023-04-25T12:34:32.698Z,84.81
2023-04-25T12:35:32.689Z,87.74
2023-04-25T12:36:32.674Z,85.22
2023-04-25T12:37:32.672Z,85.22
2023-04-25T12:38:32.672Z,85.99
2023-04-25T12:39:32.666Z,85.26
2023-04-25T12:40:32.665Z,87.02
2023-04-25T12:41:32.623Z,86.46
2023-04-25T12:42:32.618Z,86.25
2023-04-25T12:43:32.634Z,84.60
2023-04-25T12:44:32.596Z,81.95
2023-04-25T12:45:32.583Z,79.88
2023-04-25T12:46:32.588Z,79.16
2023-04-25T12:47:32.585Z,79.77
2023-04-25T12:48:32.564Z,81.68
2023-04-25T12:49:32.548Z,82.26
2023-04-25T12:50:32.529Z,81.43
2023-04-25T12:51:32.527Z,82.95
2023-04-25T12:52:32.509Z,84.29